Edea, Cameroon
Current Conditions -  °F | °C
As of 10:00 AM on Thursday 18 Dec 2014 (Local Time) from FKKD Reporting Station
Haze Haze  
Wind Chill: 29°   Ceiling: Unl
Heat Index: 34°   Visibility: 1mi
Dew Point: 25°   Wind: 0mph
Humidity: 79%   Direction: NA
Pressure: 29.91"   Gusts: NA
Location:  3.8°N, 10.12°E
Report Text: FKKD 180900Z 00000KT 1700 HZ SCT016 FEW020CB 29/25 Q1013 NOSIG
Loading
Personal Weather Stations






























Interactive Weather Map New forecast layout! Learn more

10-Day Weather Forecast

Advertisements
Track Severe Weather on mobile